Time;durP1;ratioP1;P1;durP2;ratioP2;P2;SDS_P1;SDS_P2;PMS_P1;PMS_P2;Temp;Humidity;BMP_temperature;BMP_pressure;BME280_temperature;BME280_humidity;BME280_pressure;Samples;Min_cycle;Max_cycle;Signal;HPM_P1;HPM_P2
2023/12/01 00:02:25;;;;;;;104.25;41.08;;;;;;;;;;5021285;28;20111;-64
2023/12/01 00:04:51;;;;;;;106.78;43.15;;;;;;;;;;5023113;28;20037;-64
2023/12/01 00:07:18;;;;;;;100.07;39.22;;;;;;;;;;5016807;28;20041;-64
2023/12/01 00:09:44;;;;;;;110.25;41.00;;;;;;;;;;5005974;28;20030;-64
2023/12/01 00:12:10;;;;;;;128.55;42.33;;;;;;;;;;5016791;28;20046;-61
2023/12/01 00:14:36;;;;;;;114.63;43.15;;;;;;;;;;5015485;28;20049;-62
2023/12/01 00:17:02;;;;;;;98.30;39.47;;;;;;;;;;5005160;28;20042;-63
2023/12/01 00:19:28;;;;;;;111.65;39.97;;;;;;;;;;5013238;28;20059;-61
2023/12/01 00:21:54;;;;;;;106.70;40.20;;;;;;;;;;5014986;28;20171;-62
2023/12/01 00:24:20;;;;;;;107.82;39.47;;;;;;;;;;5022052;28;20030;-62
2023/12/01 00:26:46;;;;;;;107.88;39.13;;;;;;;;;;5002736;28;20030;-62
2023/12/01 00:29:12;;;;;;;110.30;40.88;;;;;;;;;;5009664;28;20037;-62
2023/12/01 00:31:38;;;;;;;114.43;41.58;;;;;;;;;;5015177;28;20052;-63
2023/12/01 00:34:04;;;;;;;123.07;42.53;;;;;;;;;;5018163;28;20037;-62
2023/12/01 00:36:32;;;;;;;111.32;42.22;;;;;;;;;;5019460;28;20032;-62
2023/12/01 00:38:58;;;;;;;103.88;39.47;;;;;;;;;;5006751;28;20041;-62
2023/12/01 00:41:24;;;;;;;109.90;40.58;;;;;;;;;;4999870;28;20045;-62
2023/12/01 00:43:50;;;;;;;113.00;41.97;;;;;;;;;;4998814;28;20034;-63
2023/12/01 00:46:16;;;;;;;108.95;40.42;;;;;;;;;;5013737;28;20037;-62
2023/12/01 00:48:42;;;;;;;113.70;41.53;;;;;;;;;;5009595;28;20397;-63
2023/12/01 00:51:15;;;;;;;104.65;38.83;;;;;;;;;;5018177;28;20037;-63
2023/12/01 00:53:40;;;;;;;103.93;37.53;;;;;;;;;;5006247;28;20386;-63
2023/12/01 00:56:07;;;;;;;115.35;38.75;;;;;;;;;;5018519;28;20099;-62
2023/12/01 00:58:33;;;;;;;96.70;36.03;;;;;;;;;;5018938;28;20041;-62
2023/12/01 01:00:59;;;;;;;106.93;38.63;;;;;;;;;;5017269;28;20049;-62
2023/12/01 01:03:25;;;;;;;98.68;36.10;;;;;;;;;;5018250;28;20060;-63
2023/12/01 01:05:51;;;;;;;98.00;36.42;;;;;;;;;;5010461;28;20552;-63
2023/12/01 01:08:17;;;;;;;109.88;39.17;;;;;;;;;;5018630;28;20025;-62
2023/12/01 01:10:43;;;;;;;96.57;36.95;;;;;;;;;;5012778;28;20038;-62
2023/12/01 01:13:10;;;;;;;102.00;36.90;;;;;;;;;;5017748;28;20037;-62
2023/12/01 01:15:36;;;;;;;100.35;37.75;;;;;;;;;;5014638;28;20034;-63
2023/12/01 01:18:02;;;;;;;96.93;38.47;;;;;;;;;;5019229;28;20022;-63
2023/12/01 01:20:28;;;;;;;98.60;38.42;;;;;;;;;;5011117;28;20496;-64
2023/12/01 01:22:54;;;;;;;94.10;37.42;;;;;;;;;;5005805;28;20046;-62
2023/12/01 01:25:20;;;;;;;109.05;39.58;;;;;;;;;;5002620;28;20121;-63
2023/12/01 01:27:46;;;;;;;104.40;39.35;;;;;;;;;;5007136;28;20052;-63
2023/12/01 01:30:12;;;;;;;92.40;35.72;;;;;;;;;;5015599;28;20044;-63
2023/12/01 01:32:38;;;;;;;88.57;35.60;;;;;;;;;;5012917;28;20585;-62
2023/12/01 01:35:04;;;;;;;81.50;33.80;;;;;;;;;;5005584;28;20121;-63
2023/12/01 01:37:30;;;;;;;87.38;35.60;;;;;;;;;;5020736;28;20025;-63
2023/12/01 01:39:56;;;;;;;87.47;36.83;;;;;;;;;;5014839;28;20380;-62
2023/12/01 01:42:22;;;;;;;93.63;38.05;;;;;;;;;;5010507;28;20111;-61
2023/12/01 01:44:48;;;;;;;87.47;36.65;;;;;;;;;;5013462;28;20038;-62
2023/12/01 01:47:14;;;;;;;86.57;34.90;;;;;;;;;;5014483;28;20041;-61
2023/12/01 01:49:40;;;;;;;87.63;33.67;;;;;;;;;;5017498;28;20037;-61
2023/12/01 01:52:06;;;;;;;79.43;32.92;;;;;;;;;;5016793;28;20048;-61
2023/12/01 01:54:32;;;;;;;75.32;33.15;;;;;;;;;;5022309;28;20447;-62
2023/12/01 01:56:58;;;;;;;87.53;35.65;;;;;;;;;;5019589;28;20069;-62
2023/12/01 01:59:24;;;;;;;81.82;35.28;;;;;;;;;;5014938;28;20644;-61
2023/12/01 02:01:51;;;;;;;81.85;35.65;;;;;;;;;;5019826;28;20413;-62
2023/12/01 02:04:17;;;;;;;79.88;32.65;;;;;;;;;;5014665;28;20118;-62
2023/12/01 02:06:46;;;;;;;78.63;33.40;;;;;;;;;;5007764;28;20037;-61
2023/12/01 02:09:15;;;;;;;88.28;33.63;;;;;;;;;;5018433;28;20077;-62
2023/12/01 02:11:41;;;;;;;79.20;34.15;;;;;;;;;;5017831;28;20064;-62
2023/12/01 02:14:07;;;;;;;78.15;34.17;;;;;;;;;;5019479;28;20034;-61
2023/12/01 02:16:33;;;;;;;80.47;34.30;;;;;;;;;;5017401;28;20516;-62
2023/12/01 02:18:59;;;;;;;87.28;34.80;;;;;;;;;;5019068;28;20117;-61
2023/12/01 02:21:26;;;;;;;72.97;33.25;;;;;;;;;;5010634;28;20146;-62
2023/12/01 02:23:52;;;;;;;82.18;34.30;;;;;;;;;;5013347;28;20080;-62
2023/12/01 02:26:19;;;;;;;76.47;31.77;;;;;;;;;;4999501;28;20187;-62
2023/12/01 02:28:45;;;;;;;81.88;35.03;;;;;;;;;;5009723;28;20116;-61
2023/12/01 02:31:11;;;;;;;80.50;34.30;;;;;;;;;;5011131;28;20467;-64
2023/12/01 02:33:37;;;;;;;76.82;33.33;;;;;;;;;;5023259;28;20026;-64
2023/12/01 02:36:06;;;;;;;77.70;33.65;;;;;;;;;;5011606;28;20034;-64
2023/12/01 02:38:32;;;;;;;76.82;32.67;;;;;;;;;;5008630;28;20505;-64
2023/12/01 02:40:58;;;;;;;79.32;34.30;;;;;;;;;;5001337;28;20120;-64
2023/12/01 02:43:24;;;;;;;77.65;33.95;;;;;;;;;;5010809;28;20037;-64
2023/12/01 02:45:50;;;;;;;77.63;33.47;;;;;;;;;;5003836;28;20038;-63
2023/12/01 02:48:16;;;;;;;75.53;33.33;;;;;;;;;;5023558;28;20072;-64
2023/12/01 02:50:43;;;;;;;74.45;31.17;;;;;;;;;;5010528;28;20052;-64
2023/12/01 02:53:09;;;;;;;76.70;31.92;;;;;;;;;;5018547;28;20035;-64
2023/12/01 02:55:35;;;;;;;70.75;31.63;;;;;;;;;;5018608;28;20034;-64
2023/12/01 02:58:01;;;;;;;71.68;31.23;;;;;;;;;;5017064;28;20386;-64
2023/12/01 03:00:27;;;;;;;69.47;30.77;;;;;;;;;;5009649;28;20190;-64
2023/12/01 03:02:53;;;;;;;74.72;32.25;;;;;;;;;;5010537;28;20045;-64
2023/12/01 03:05:20;;;;;;;68.50;30.60;;;;;;;;;;5013990;28;20029;-64
2023/12/01 03:07:46;;;;;;;55.38;26.77;;;;;;;;;;5023762;28;20083;-64
2023/12/01 03:10:12;;;;;;;75.88;32.28;;;;;;;;;;5012510;28;20026;-64
2023/12/01 03:12:39;;;;;;;76.38;33.08;;;;;;;;;;5012938;28;20044;-64
2023/12/01 03:15:09;;;;;;;76.18;32.25;;;;;;;;;;5013192;28;20060;-64
2023/12/01 03:17:36;;;;;;;79.63;32.92;;;;;;;;;;5003073;28;20037;-64
2023/12/01 03:20:07;;;;;;;76.93;32.83;;;;;;;;;;5004729;28;20040;-64
2023/12/01 03:22:33;;;;;;;75.60;31.02;;;;;;;;;;5013333;28;20045;-64
2023/12/01 03:24:59;;;;;;;82.22;33.13;;;;;;;;;;5013673;28;20323;-64
2023/12/01 03:27:25;;;;;;;74.90;32.17;;;;;;;;;;5016606;28;20087;-64
2023/12/01 03:29:52;;;;;;;79.03;32.55;;;;;;;;;;5002666;28;20197;-64
2023/12/01 03:32:18;;;;;;;75.10;30.95;;;;;;;;;;5009730;28;20510;-64
2023/12/01 03:34:44;;;;;;;75.95;32.83;;;;;;;;;;5014357;28;20095;-64
2023/12/01 03:37:10;;;;;;;74.70;31.80;;;;;;;;;;5019332;28;20037;-64
2023/12/01 03:39:36;;;;;;;77.68;31.98;;;;;;;;;;5022197;28;20172;-64
2023/12/01 03:42:04;;;;;;;79.25;34.20;;;;;;;;;;5022958;28;20149;-63
2023/12/01 03:44:30;;;;;;;74.13;32.38;;;;;;;;;;5011282;28;20030;-64
2023/12/01 03:46:56;;;;;;;76.38;33.20;;;;;;;;;;5015200;28;20103;-64
2023/12/01 03:49:22;;;;;;;79.32;33.42;;;;;;;;;;5018613;28;20079;-64
2023/12/01 03:51:48;;;;;;;42.53;17.90;;;;;;;;;;5018266;28;20045;-64
2023/12/01 03:54:14;;;;;;;0.00;0.00;;;;;;;;;;5020081;28;20047;-64
2023/12/01 03:56:40;;;;;;;55.17;23.70;;;;;;;;;;5009504;28;20111;-64
2023/12/01 03:59:09;;;;;;;72.38;31.85;;;;;;;;;;5019329;28;20055;-64
2023/12/01 04:01:36;;;;;;;72.80;31.77;;;;;;;;;;5009189;28;20574;-64
2023/12/01 04:04:02;;;;;;;76.60;33.40;;;;;;;;;;5019657;28;20049;-64
2023/12/01 04:06:28;;;;;;;70.78;31.10;;;;;;;;;;5023728;28;20134;-64
2023/12/01 04:08:54;;;;;;;78.07;32.35;;;;;;;;;;5019749;28;20045;-64
2023/12/01 04:11:20;;;;;;;72.88;32.95;;;;;;;;;;5015401;28;20032;-64
2023/12/01 04:13:46;;;;;;;77.97;32.42;;;;;;;;;;5003611;28;20018;-64
2023/12/01 04:16:12;;;;;;;70.53;32.20;;;;;;;;;;5020781;28;20034;-64
2023/12/01 04:18:38;;;;;;;67.63;30.65;;;;;;;;;;5017056;28;20029;-64
2023/12/01 04:21:08;;;;;;;67.30;29.65;;;;;;;;;;5004254;28;20038;-64
2023/12/01 04:23:34;;;;;;;67.03;30.30;;;;;;;;;;5003065;28;20087;-64
2023/12/01 04:26:01;;;;;;;68.18;28.45;;;;;;;;;;5005205;28;20060;-64
2023/12/01 04:28:27;;;;;;;59.22;28.15;;;;;;;;;;5005124;28;20025;-63
2023/12/01 04:30:53;;;;;;;55.95;27.38;;;;;;;;;;5001897;28;20111;-63
2023/12/01 04:33:19;;;;;;;57.28;27.65;;;;;;;;;;4999934;28;20045;-64
2023/12/01 04:35:45;;;;;;;49.85;25.75;;;;;;;;;;5015438;28;20034;-64
2023/12/01 04:38:11;;;;;;;59.80;28.30;;;;;;;;;;5013106;28;20509;-63
2023/12/01 04:40:37;;;;;;;64.50;29.67;;;;;;;;;;5018108;28;20054;-64
2023/12/01 04:43:03;;;;;;;62.40;29.58;;;;;;;;;;5010256;28;20145;-64
2023/12/01 04:45:35;;;;;;;59.83;27.88;;;;;;;;;;5009172;28;20037;-64
2023/12/01 04:48:01;;;;;;;63.17;29.52;;;;;;;;;;5016974;28;20056;-64
2023/12/01 04:50:28;;;;;;;60.42;28.42;;;;;;;;;;5012280;28;20045;-61
2023/12/01 04:53:01;;;;;;;58.97;27.85;;;;;;;;;;5010094;28;20069;-64
2023/12/01 04:55:30;;;;;;;60.78;26.67;;;;;;;;;;4999377;28;20494;-64
2023/12/01 04:57:58;;;;;;;58.92;28.33;;;;;;;;;;4997174;28;20752;-64
2023/12/01 05:00:25;;;;;;;51.28;25.05;;;;;;;;;;5009633;28;20567;-64
2023/12/01 05:02:55;;;;;;;52.83;26.23;;;;;;;;;;5018659;28;20125;-64
2023/12/01 05:05:23;;;;;;;51.67;24.35;;;;;;;;;;5015553;28;20041;-64
2023/12/01 05:07:51;;;;;;;57.65;26.10;;;;;;;;;;5009471;28;20029;-63
2023/12/01 05:10:19;;;;;;;48.25;23.85;;;;;;;;;;5019316;28;20531;-64
2023/12/01 05:12:49;;;;;;;48.00;24.67;;;;;;;;;;5006035;28;20113;-63
2023/12/01 05:15:18;;;;;;;45.70;24.63;;;;;;;;;;5011013;28;20041;-64
2023/12/01 05:17:50;;;;;;;40.22;20.73;;;;;;;;;;5010479;28;20438;-64
2023/12/01 05:20:17;;;;;;;47.35;22.90;;;;;;;;;;5014749;28;20065;-64
2023/12/01 05:22:44;;;;;;;43.90;22.58;;;;;;;;;;5001376;28;20141;-63
2023/12/01 05:25:13;;;;;;;41.00;21.75;;;;;;;;;;5017244;28;20140;-64
2023/12/01 05:27:40;;;;;;;44.75;23.02;;;;;;;;;;5002614;28;20242;-64
2023/12/01 05:30:06;;;;;;;43.25;23.00;;;;;;;;;;5023547;28;20040;-64
2023/12/01 05:32:33;;;;;;;46.75;23.85;;;;;;;;;;5012327;28;20038;-64
2023/12/01 05:34:59;;;;;;;46.22;23.25;;;;;;;;;;5001067;28;20594;-64
2023/12/01 05:37:25;;;;;;;41.67;22.05;;;;;;;;;;5001084;28;20048;-64
2023/12/01 05:39:51;;;;;;;43.05;21.98;;;;;;;;;;5013674;28;20064;-64
2023/12/01 05:42:17;;;;;;;42.40;22.55;;;;;;;;;;5004129;28;20177;-63
2023/12/01 05:44:43;;;;;;;41.45;20.80;;;;;;;;;;5010414;28;20420;-63
2023/12/01 05:47:09;;;;;;;45.40;22.67;;;;;;;;;;5005254;28;20038;-64
2023/12/01 05:49:35;;;;;;;50.25;24.83;;;;;;;;;;5008676;28;20046;-64
2023/12/01 05:52:01;;;;;;;47.78;24.30;;;;;;;;;;5001858;28;20124;-63
2023/12/01 05:54:27;;;;;;;53.20;25.70;;;;;;;;;;5000757;28;20030;-64
2023/12/01 05:56:55;;;;;;;47.03;24.33;;;;;;;;;;5011691;28;20044;-64
2023/12/01 05:59:21;;;;;;;49.85;26.05;;;;;;;;;;5007228;28;21035;-64
2023/12/01 06:01:47;;;;;;;50.60;25.40;;;;;;;;;;5018188;28;20480;-61
2023/12/01 06:04:13;;;;;;;52.60;25.17;;;;;;;;;;5011347;28;20132;-61
2023/12/01 06:06:40;;;;;;;55.28;26.77;;;;;;;;;;5008660;28;20029;-62
2023/12/01 06:09:07;;;;;;;52.05;26.63;;;;;;;;;;5012865;28;20034;-62
2023/12/01 06:11:33;;;;;;;51.50;25.38;;;;;;;;;;5004171;28;20121;-62
2023/12/01 06:14:00;;;;;;;55.55;26.80;;;;;;;;;;5000634;28;20045;-61
2023/12/01 06:16:26;;;;;;;54.67;26.77;;;;;;;;;;5016194;28;20033;-62
2023/12/01 06:18:52;;;;;;;51.47;25.02;;;;;;;;;;5005467;28;20045;-62
2023/12/01 06:21:18;;;;;;;49.65;26.20;;;;;;;;;;5013106;28;20195;-63
2023/12/01 06:23:44;;;;;;;53.03;27.13;;;;;;;;;;5020631;28;20048;-62
2023/12/01 06:26:10;;;;;;;54.50;26.13;;;;;;;;;;5005034;28;20042;-61
2023/12/01 06:28:36;;;;;;;59.80;25.80;;;;;;;;;;5003494;28;20390;-62
2023/12/01 06:31:02;;;;;;;47.78;23.77;;;;;;;;;;4999338;28;20486;-61
2023/12/01 06:33:28;;;;;;;53.22;25.98;;;;;;;;;;5003871;28;20500;-61
2023/12/01 06:35:54;;;;;;;54.15;25.15;;;;;;;;;;5014111;28;20021;-62
2023/12/01 06:38:20;;;;;;;50.33;24.17;;;;;;;;;;5014593;28;20068;-61
2023/12/01 06:40:46;;;;;;;48.25;22.70;;;;;;;;;;4994020;28;20078;-62
2023/12/01 06:43:12;;;;;;;49.45;23.05;;;;;;;;;;5014482;28;20038;-63
2023/12/01 06:45:38;;;;;;;51.53;24.98;;;;;;;;;;5014750;28;20064;-63
2023/12/01 06:48:04;;;;;;;51.05;24.63;;;;;;;;;;5013502;28;20049;-62
2023/12/01 06:50:30;;;;;;;57.78;24.63;;;;;;;;;;5024029;28;20113;-61
2023/12/01 06:53:00;;;;;;;50.85;23.73;;;;;;;;;;5008672;28;20145;-62
2023/12/01 06:55:26;;;;;;;51.28;20.42;;;;;;;;;;5015196;28;20421;-61
2023/12/01 06:57:52;;;;;;;48.65;23.58;;;;;;;;;;5015029;28;20040;-62
2023/12/01 07:00:36;;;;;;;53.25;24.48;;;;;;;;;;5017769;28;20425;-62
2023/12/01 07:03:09;;;;;;;55.80;26.30;;;;;;;;;;5020947;28;20052;-63
2023/12/01 07:05:35;;;;;;;;;;;;;;;;;;5014437;28;20048;-61
2023/12/01 07:08:03;;;;;;;58.60;25.17;;;;;;;;;;5010065;28;19917;-63
2023/12/01 07:10:29;;;;;;;57.83;27.25;;;;;;;;;;5015838;28;20025;-65
2023/12/01 07:12:56;;;;;;;60.58;27.50;;;;;;;;;;5022213;28;20658;-62
2023/12/01 07:15:23;;;;;;;64.07;28.63;;;;;;;;;;5008813;28;20041;-62
2023/12/01 07:17:50;;;;;;;63.90;27.42;;;;;;;;;;5010363;28;20060;-61
2023/12/01 07:20:18;;;;;;;63.22;27.98;;;;;;;;;;5013052;28;20038;-61
2023/12/01 07:22:44;;;;;;;58.08;27.85;;;;;;;;;;5020076;28;20042;-63
2023/12/01 07:25:10;;;;;;;60.20;25.40;;;;;;;;;;5016402;28;20405;-61
2023/12/01 07:27:39;;;;;;;59.13;25.65;;;;;;;;;;5018901;28;20050;-62
2023/12/01 07:30:06;;;;;;;60.97;26.52;;;;;;;;;;5019340;28;20032;-62
2023/12/01 07:32:32;;;;;;;50.63;22.90;;;;;;;;;;5011605;28;20060;-62
2023/12/01 07:34:58;;;;;;;48.35;21.00;;;;;;;;;;5017461;28;20441;-62
2023/12/01 07:37:24;;;;;;;37.75;19.92;;;;;;;;;;5008419;28;20061;-63
2023/12/01 07:39:50;;;;;;;42.25;20.88;;;;;;;;;;5007404;28;20034;-63
2023/12/01 07:42:17;;;;;;;43.55;21.73;;;;;;;;;;5006658;28;20405;-61
2023/12/01 07:44:44;;;;;;;44.67;21.35;;;;;;;;;;5005573;28;20342;-64
2023/12/01 07:47:11;;;;;;;39.97;20.30;;;;;;;;;;5001355;28;20052;-62
2023/12/01 07:49:37;;;;;;;47.65;22.45;;;;;;;;;;5017524;28;20545;-62
2023/12/01 07:52:06;;;;;;;44.42;21.35;;;;;;;;;;5015160;28;20371;-61
2023/12/01 07:54:33;;;;;;;43.45;21.95;;;;;;;;;;5019072;28;20489;-61
2023/12/01 07:56:59;;;;;;;39.65;20.13;;;;;;;;;;5018638;28;20474;-63
2023/12/01 07:59:25;;;;;;;39.65;19.17;;;;;;;;;;5018955;28;20041;-62
2023/12/01 08:01:51;;;;;;;44.03;20.30;;;;;;;;;;5019426;28;20132;-62
2023/12/01 08:04:17;;;;;;;36.85;18.55;;;;;;;;;;5009723;28;20041;-61
2023/12/01 08:06:43;;;;;;;38.97;20.48;;;;;;;;;;5021819;28;20125;-62
2023/12/01 08:09:09;;;;;;;39.30;20.73;;;;;;;;;;5011570;28;20611;-62
2023/12/01 08:11:35;;;;;;;41.72;20.83;;;;;;;;;;5018749;28;20045;-63
2023/12/01 08:14:03;;;;;;;42.80;21.17;;;;;;;;;;5016750;28;20037;-63
2023/12/01 08:16:29;;;;;;;45.83;22.45;;;;;;;;;;5016789;28;20044;-63
2023/12/01 08:18:58;;;;;;;52.28;22.08;;;;;;;;;;5023522;28;20036;-62
2023/12/01 08:21:24;;;;;;;47.03;23.17;;;;;;;;;;5008364;28;20033;-62
2023/12/01 08:23:50;;;;;;;49.75;24.30;;;;;;;;;;5014630;28;20037;-62
2023/12/01 08:26:16;;;;;;;49.60;25.10;;;;;;;;;;5017383;28;20384;-61
2023/12/01 08:28:42;;;;;;;54.05;23.95;;;;;;;;;;5021886;28;20036;-61
2023/12/01 08:31:08;;;;;;;57.88;26.85;;;;;;;;;;5010393;28;20063;-63
2023/12/01 08:33:35;;;;;;;52.28;25.38;;;;;;;;;;5016224;28;20449;-61
2023/12/01 08:36:02;;;;;;;51.90;25.67;;;;;;;;;;5001165;28;20037;-63
2023/12/01 08:38:28;;;;;;;50.47;24.52;;;;;;;;;;5016527;28;20437;-63
2023/12/01 08:40:54;;;;;;;47.85;23.25;;;;;;;;;;5017209;28;20393;-61
2023/12/01 08:43:19;;;;;;;50.83;24.88;;;;;;;;;;5016380;28;20235;-62
2023/12/01 08:45:45;;;;;;;57.35;26.85;;;;;;;;;;5021175;28;20383;-62
2023/12/01 08:48:12;;;;;;;53.90;25.50;;;;;;;;;;5009602;28;20393;-63
2023/12/01 08:50:38;;;;;;;58.50;25.42;;;;;;;;;;5020076;28;20033;-61
2023/12/01 08:53:05;;;;;;;56.15;27.10;;;;;;;;;;5013307;28;20052;-63
2023/12/01 08:55:31;;;;;;;56.90;26.27;;;;;;;;;;5005099;28;20033;-62
2023/12/01 08:57:57;;;;;;;58.72;27.25;;;;;;;;;;5014707;28;20110;-61
2023/12/01 09:00:24;;;;;;;52.05;24.90;;;;;;;;;;5012868;28;20116;-61
2023/12/01 09:02:52;;;;;;;50.53;26.00;;;;;;;;;;5021333;28;20034;-62
2023/12/01 09:05:17;;;;;;;46.92;23.40;;;;;;;;;;5009045;28;20096;-61
2023/12/01 09:07:46;;;;;;;53.15;25.25;;;;;;;;;;5008026;28;20523;-62
2023/12/01 09:10:13;;;;;;;51.35;25.90;;;;;;;;;;5008271;28;20040;-62
2023/12/01 09:12:39;;;;;;;57.00;27.20;;;;;;;;;;5017081;28;20037;-62
2023/12/01 09:15:05;;;;;;;57.63;25.83;;;;;;;;;;5015841;28;20421;-63
2023/12/01 09:17:31;;;;;;;62.70;28.20;;;;;;;;;;5013368;28;20483;-61
2023/12/01 09:19:57;;;;;;;61.60;27.67;;;;;;;;;;5008773;28;20163;-62
2023/12/01 09:22:23;;;;;;;56.92;26.17;;;;;;;;;;5013587;28;20369;-61
2023/12/01 09:24:49;;;;;;;54.28;23.27;;;;;;;;;;5015647;28;20102;-62
2023/12/01 09:27:15;;;;;;;60.22;26.75;;;;;;;;;;5007904;28;20025;-61
2023/12/01 09:29:41;;;;;;;56.90;26.17;;;;;;;;;;5018155;28;20090;-61
2023/12/01 09:32:07;;;;;;;52.65;24.35;;;;;;;;;;5017214;28;20176;-62
2023/12/01 09:34:33;;;;;;;57.33;25.65;;;;;;;;;;5012166;28;20408;-61
2023/12/01 09:36:59;;;;;;;52.25;25.52;;;;;;;;;;5022489;28;20068;-62
2023/12/01 09:39:25;;;;;;;60.83;27.15;;;;;;;;;;5016000;28;20123;-62
2023/12/01 09:41:52;;;;;;;58.45;26.45;;;;;;;;;;5020399;28;20048;-62
2023/12/01 09:44:18;;;;;;;60.17;29.42;;;;;;;;;;5014386;28;20500;-61
2023/12/01 09:46:45;;;;;;;58.35;27.25;;;;;;;;;;5016375;28;20042;-61
2023/12/01 09:49:11;;;;;;;56.80;27.27;;;;;;;;;;5016833;28;20080;-63
2023/12/01 09:51:37;;;;;;;52.22;24.90;;;;;;;;;;5004667;28;20080;-62
2023/12/01 09:54:03;;;;;;;60.22;27.05;;;;;;;;;;5017225;28;20037;-62
2023/12/01 09:56:30;;;;;;;55.10;26.83;;;;;;;;;;5018171;28;20033;-62
2023/12/01 09:58:57;;;;;;;53.40;25.50;;;;;;;;;;5019917;28;20061;-62
2023/12/01 10:01:23;;;;;;;47.15;23.50;;;;;;;;;;5019111;28;20401;-62
2023/12/01 10:03:49;;;;;;;45.75;20.67;;;;;;;;;;5022897;28;20246;-62
2023/12/01 10:06:15;;;;;;;49.10;24.42;;;;;;;;;;5022509;28;20619;-62
2023/12/01 10:08:41;;;;;;;48.00;24.05;;;;;;;;;;5020577;28;20101;-63
2023/12/01 10:11:23;;;;;;;49.35;23.52;;;;;;;;;;4994128;28;20045;-61
2023/12/01 10:13:50;;;;;;;48.92;23.73;;;;;;;;;;5019280;28;20292;-63
2023/12/01 10:16:16;;;;;;;50.65;23.80;;;;;;;;;;5019316;28;20096;-62
2023/12/01 10:18:58;;;;;;;42.40;23.48;;;;;;;;;;5011464;28;20642;-61
2023/12/01 10:21:40;;;;;;;55.22;26.50;;;;;;;;;;5011738;28;20044;-62
2023/12/01 10:24:13;;;;;;;55.08;24.23;;;;;;;;;;5010792;28;20078;-62
2023/12/01 10:26:40;;;;;;;50.35;25.55;;;;;;;;;;5008268;28;21940;-62
2023/12/01 10:29:07;;;;;;;56.90;26.33;;;;;;;;;;5011466;28;20034;-62
2023/12/01 10:31:33;;;;;;;52.40;25.98;;;;;;;;;;5020370;28;20508;-63
2023/12/01 10:33:59;;;;;;;60.83;26.60;;;;;;;;;;5011415;28;20052;-61
2023/12/01 10:36:26;;;;;;;60.13;28.08;;;;;;;;;;5014239;28;20042;-62
2023/12/01 10:38:52;;;;;;;51.83;25.10;;;;;;;;;;5006266;28;20041;-62
2023/12/01 10:41:18;;;;;;;56.30;24.98;;;;;;;;;;5000641;28;20154;-62
2023/12/01 10:43:45;;;;;;;53.65;24.75;;;;;;;;;;5018619;28;20045;-61
2023/12/01 10:46:13;;;;;;;54.47;26.15;;;;;;;;;;5015476;28;20040;-62
2023/12/01 10:48:39;;;;;;;53.03;26.05;;;;;;;;;;5017276;28;20059;-62
2023/12/01 10:51:06;;;;;;;51.20;24.45;;;;;;;;;;5021124;28;20501;-65
2023/12/01 10:53:32;;;;;;;45.50;23.08;;;;;;;;;;5010536;28;20439;-65
2023/12/01 10:56:07;;;;;;;37.72;18.90;;;;;;;;;;5017035;28;20090;-64
2023/12/01 10:58:34;;;;;;;34.13;19.13;;;;;;;;;;5017052;28;20033;-65
2023/12/01 11:01:00;;;;;;;37.45;19.10;;;;;;;;;;5018740;28;20895;-64
2023/12/01 11:03:29;;;;;;;44.38;21.42;;;;;;;;;;5021576;28;20045;-65
2023/12/01 11:05:57;;;;;;;39.78;19.42;;;;;;;;;;5019056;28;20052;-64
2023/12/01 11:08:23;;;;;;;42.92;21.42;;;;;;;;;;5018308;28;20026;-65
2023/12/01 11:11:08;;;;;;;47.05;23.38;;;;;;;;;;5023725;28;20041;-65
2023/12/01 11:13:34;;;;;;;44.90;22.38;;;;;;;;;;5014510;28;20052;-64
2023/12/01 11:16:00;;;;;;;49.35;25.27;;;;;;;;;;5017497;28;20103;-65
2023/12/01 11:18:26;;;;;;;44.50;23.27;;;;;;;;;;5020640;28;20057;-65
2023/12/01 11:20:53;;;;;;;44.10;23.38;;;;;;;;;;5021218;28;20041;-65
2023/12/01 11:23:19;;;;;;;44.42;23.15;;;;;;;;;;5019418;28;20490;-65
2023/12/01 11:25:48;;;;;;;40.88;22.70;;;;;;;;;;5023125;28;20123;-65
2023/12/01 11:31:09;;;;;;;34.80;19.45;;;;;;;;;;5017156;28;20222;-65
2023/12/01 11:33:38;;;;;;;41.78;22.95;;;;;;;;;;5021515;28;20045;-65
2023/12/01 11:36:23;;;;;;;44.30;22.95;;;;;;;;;;5026398;28;20037;-65
2023/12/01 11:41:47;;;;;;;38.83;20.00;;;;;;;;;;5008454;28;20096;-65
2023/12/01 11:44:24;;;;;;;39.13;21.25;;;;;;;;;;5001317;28;20038;-65
2023/12/01 11:46:55;;;;;;;40.80;21.95;;;;;;;;;;5007252;28;20166;-65
2023/12/01 11:49:22;;;;;;;40.70;22.13;;;;;;;;;;5017211;28;20046;-65
2023/12/01 11:51:49;;;;;;;36.13;19.13;;;;;;;;;;5019588;28;20044;-66
2023/12/01 11:54:15;;;;;;;37.65;18.50;;;;;;;;;;5016347;28;20033;-66
2023/12/01 11:56:46;;;;;;;31.73;17.80;;;;;;;;;;5005029;28;20317;-65
2023/12/01 11:59:12;;;;;;;36.20;19.40;;;;;;;;;;5007019;28;20042;-66
2023/12/01 12:01:38;;;;;;;37.78;19.33;;;;;;;;;;5013895;28;20045;-63
2023/12/01 12:04:05;;;;;;;33.55;18.52;;;;;;;;;;5015894;28;20377;-63
2023/12/01 12:06:34;;;;;;;34.35;19.30;;;;;;;;;;5018391;28;20077;-62
2023/12/01 12:09:06;;;;;;;31.15;17.55;;;;;;;;;;5016238;28;20052;-64
2023/12/01 12:11:36;;;;;;;32.72;18.25;;;;;;;;;;5013168;28;20048;-62
2023/12/01 12:14:02;;;;;;;27.92;16.80;;;;;;;;;;5017454;28;20045;-63
2023/12/01 12:16:29;;;;;;;35.40;19.20;;;;;;;;;;5005258;28;20505;-62
2023/12/01 12:18:59;;;;;;;36.40;19.48;;;;;;;;;;5020322;28;20042;-62
2023/12/01 12:21:25;;;;;;;34.58;18.85;;;;;;;;;;5012467;28;20084;-62
2023/12/01 12:23:51;;;;;;;31.42;18.38;;;;;;;;;;5017554;28;20421;-63
2023/12/01 12:26:21;;;;;;;36.55;19.05;;;;;;;;;;5018301;28;20025;-63
2023/12/01 12:28:50;;;;;;;36.83;20.77;;;;;;;;;;5021006;28;20098;-63
2023/12/01 12:31:17;;;;;;;35.90;20.50;;;;;;;;;;5015801;28;20401;-64
2023/12/01 12:33:43;;;;;;;36.05;20.35;;;;;;;;;;5013431;28;20030;-64
2023/12/01 12:36:12;;;;;;;34.75;20.85;;;;;;;;;;4998929;28;20034;-64
2023/12/01 12:38:38;;;;;;;33.10;19.60;;;;;;;;;;5013022;28;20029;-63
2023/12/01 12:41:20;;;;;;;27.02;17.40;;;;;;;;;;5004627;28;20418;-63
2023/12/01 12:43:50;;;;;;;40.65;20.85;;;;;;;;;;5018644;28;20351;-65
2023/12/01 12:46:16;;;;;;;39.40;20.65;;;;;;;;;;5012969;28;20057;-63
2023/12/01 12:48:42;;;;;;;36.70;20.27;;;;;;;;;;5018115;28;20068;-64
2023/12/01 12:51:08;;;;;;;36.75;19.15;;;;;;;;;;5003744;28;20048;-62
2023/12/01 12:53:34;;;;;;;35.08;17.50;;;;;;;;;;5001114;28;20029;-62
2023/12/01 12:56:08;;;;;;;34.33;18.10;;;;;;;;;;5015188;28;20489;-63
2023/12/01 12:58:34;;;;;;;36.95;19.80;;;;;;;;;;5010519;28;20064;-63
2023/12/01 13:01:00;;;;;;;42.15;19.25;;;;;;;;;;5012687;28;20472;-62
2023/12/01 13:03:26;;;;;;;38.35;20.65;;;;;;;;;;5016838;28;20033;-63
2023/12/01 13:05:52;;;;;;;39.25;20.65;;;;;;;;;;5019937;28;20484;-62
2023/12/01 13:08:18;;;;;;;41.15;20.92;;;;;;;;;;5010110;28;20041;-64
2023/12/01 13:10:44;;;;;;;34.17;17.05;;;;;;;;;;5015694;28;20055;-63
2023/12/01 13:13:10;;;;;;;32.60;18.75;;;;;;;;;;5015143;28;20484;-63
2023/12/01 13:15:36;;;;;;;36.47;19.63;;;;;;;;;;5016530;28;20456;-63
2023/12/01 13:18:02;;;;;;;37.60;20.67;;;;;;;;;;5014990;28;20677;-63
2023/12/01 13:20:28;;;;;;;37.95;21.08;;;;;;;;;;5014078;28;20827;-62
2023/12/01 13:22:54;;;;;;;37.42;20.10;;;;;;;;;;5012385;28;20462;-62
2023/12/01 13:25:21;;;;;;;40.80;20.95;;;;;;;;;;5018979;28;20038;-62
2023/12/01 13:27:47;;;;;;;38.67;20.23;;;;;;;;;;5017646;28;20064;-62
2023/12/01 13:30:13;;;;;;;31.30;17.48;;;;;;;;;;5017351;28;20682;-64
2023/12/01 13:32:39;;;;;;;33.78;17.33;;;;;;;;;;5012200;28;20110;-63
2023/12/01 13:35:06;;;;;;;33.83;17.88;;;;;;;;;;5017282;28;20474;-63
2023/12/01 13:37:32;;;;;;;33.47;18.27;;;;;;;;;;5013645;28;20420;-62
2023/12/01 13:40:00;;;;;;;29.73;17.50;;;;;;;;;;5010395;28;20037;-62
2023/12/01 13:42:29;;;;;;;29.27;15.40;;;;;;;;;;5014002;28;20099;-64
2023/12/01 13:44:56;;;;;;;29.77;17.08;;;;;;;;;;5009617;28;20571;-62
2023/12/01 13:47:22;;;;;;;28.67;16.80;;;;;;;;;;5010033;28;20067;-64
2023/12/01 13:49:48;;;;;;;28.73;16.42;;;;;;;;;;5013858;28;20061;-64
2023/12/01 13:52:14;;;;;;;31.92;16.30;;;;;;;;;;5016065;28;20065;-63
2023/12/01 13:54:40;;;;;;;28.92;16.08;;;;;;;;;;5014455;28;20738;-63
2023/12/01 13:57:06;;;;;;;28.17;16.23;;;;;;;;;;5014232;28;20038;-63
2023/12/01 13:59:32;;;;;;;29.35;16.10;;;;;;;;;;5012318;28;20046;-62
2023/12/01 14:01:58;;;;;;;27.05;15.85;;;;;;;;;;5011613;28;20068;-62
2023/12/01 14:04:24;;;;;;;34.38;18.33;;;;;;;;;;5017470;28;20034;-63
2023/12/01 14:06:50;;;;;;;33.97;17.63;;;;;;;;;;5018520;28;20393;-63
2023/12/01 14:09:17;;;;;;;32.92;16.60;;;;;;;;;;5018821;28;20033;-62
2023/12/01 14:11:43;;;;;;;31.02;17.05;;;;;;;;;;5013284;28;20046;-63
2023/12/01 14:14:10;;;;;;;30.70;16.42;;;;;;;;;;5000389;28;20528;-63
2023/12/01 14:16:36;;;;;;;32.05;16.35;;;;;;;;;;5014618;28;20080;-62
2023/12/01 14:19:02;;;;;;;32.28;15.95;;;;;;;;;;5008028;28;20026;-63
2023/12/01 14:21:28;;;;;;;29.73;16.17;;;;;;;;;;5008007;28;20036;-64